Time;durP1;ratioP1;P1;durP2;ratioP2;P2;SDS_P1;SDS_P2;PMS_P1;PMS_P2;Temp;Humidity;BMP_temperature;BMP_pressure;BME280_temperature;BME280_humidity;BME280_pressure;Samples;Min_cycle;Max_cycle;Signal;HPM_P1;HPM_P2
2022/05/10 00:03:35;;;;;;;;;;;20.60;46.30;;;;;;21107592;28;19924;-62
2022/05/10 00:13:37;;;;;;;;;;;20.30;47.40;;;;;;21087882;28;19924;-61
2022/05/10 00:23:40;;;;;;;;;;;20.20;48.30;;;;;;21087630;28;19978;-63
2022/05/10 00:33:42;;;;;;;;;;;20.00;49.00;;;;;;21087184;28;19928;-60
2022/05/10 00:43:44;;;;;;;;;;;19.80;49.40;;;;;;21085415;28;19924;-61
2022/05/10 00:53:53;;;;;;;;;;;19.70;49.80;;;;;;21085626;28;20019;-61
2022/05/10 01:03:55;;;;;;;;;;;19.50;50.00;;;;;;21085530;28;19924;-61
2022/05/10 01:14:13;;;;;;;;;;;19.40;50.20;;;;;;21082739;28;19930;-62
2022/05/10 01:24:34;;;;;;;;;;;19.20;50.50;;;;;;21083555;28;19930;-61
2022/05/10 01:34:38;;;;;;;;;;;19.10;50.80;;;;;;21082449;28;20405;-61
2022/05/10 01:44:56;;;;;;;;;;;18.90;50.80;;;;;;21080804;28;19924;-62
2022/05/10 01:55:06;;;;;;;;;;;18.90;51.00;;;;;;21081114;28;20034;-60
2022/05/10 02:05:22;;;;;;;;;;;18.70;50.40;;;;;;21080198;28;19925;-62
2022/05/10 02:15:38;;;;;;;;;;;18.70;50.20;;;;;;21080110;28;19928;-61
2022/05/10 02:26:10;;;;;;;;;;;18.70;50.50;;;;;;21090062;28;19934;-61
2022/05/10 02:36:15;;;;;;;;;;;18.50;50.70;;;;;;21106280;28;19931;-61
2022/05/10 02:46:18;;;;;;;;;;;18.40;50.40;;;;;;21107301;28;19924;-62
2022/05/10 02:56:22;;;;;;;;;;;18.40;50.40;;;;;;21089637;28;19925;-62
2022/05/10 03:06:26;;;;;;;;;;;18.30;50.20;;;;;;21120965;28;20006;-62
2022/05/10 03:16:47;;;;;;;;;;;18.30;50.40;;;;;;21104610;28;19931;-62
2022/05/10 03:27:09;;;;;;;;;;;18.20;50.60;;;;;;21090145;28;19928;-63
2022/05/10 03:37:31;;;;;;;;;;;18.20;50.70;;;;;;21098671;28;19924;-62
2022/05/10 03:47:39;;;;;;;;;;;18.10;50.60;;;;;;21090059;28;19931;-61
2022/05/10 03:57:44;;;;;;;;;;;17.90;50.70;;;;;;21089616;28;19924;-60
2022/05/10 04:07:48;;;;;;;;;;;;;;;;;;21088785;28;19978;-62
2022/05/10 04:17:52;;;;;;;;;;;;;;;;;;21088247;28;19932;-61
2022/05/10 04:27:54;;;;;;;;;;;;;;;;;;21087014;28;19939;-63
2022/05/10 04:37:57;;;;;;;;;;;;;;;;;;21086343;28;19924;-62
2022/05/10 04:48:05;;;;;;;;;;;;;;;;;;21085197;28;19924;-61
2022/05/10 04:58:08;;;;;;;;;;;;;;;;;;21085605;28;20250;-62
2022/05/10 05:08:10;;;;;;;;;;;;;;;;;;21084866;28;19931;-61
2022/05/10 05:18:12;;;;;;;;;;;;;;;;;;21083576;28;19928;-62
2022/05/10 05:28:15;;;;;;;;;;;;;;;;;;21083179;28;19951;-61
2022/05/10 05:38:17;;;;;;;;;;;;;;;;;;21082208;28;19928;-61
2022/05/10 05:48:19;;;;;;;;;;;;;;;;;;21083162;28;20283;-62
2022/05/10 05:58:21;;;;;;;;;;;;;;;;;;21080889;28;20363;-63
2022/05/10 06:08:23;;;;;;;;;;;;;;;;;;21080602;28;19981;-60
2022/05/10 06:18:25;;;;;;;;;;;;;;;;;;21079427;28;19960;-61
2022/05/10 06:28:28;;;;;;;;;;;;;;;;;;21095107;28;20341;-60
2022/05/10 06:38:30;;;;;;;;;;;;;;;;;;21078308;28;20368;-62
2022/05/10 06:48:31;;;;;;;;;;;;;;;;;;21077671;28;19924;-61
2022/05/10 06:58:33;;;;;;;;;;;;;;;;;;21093017;28;19924;-61
2022/05/10 07:08:35;;;;;;;;;;;;;;;;;;21077451;28;20013;-63
2022/05/10 07:18:37;;;;;;;;;;;;;;;;;;21091610;28;19924;-61
2022/05/10 07:28:39;;;;;;;;;;;;;;;;;;21092333;28;20330;-62
2022/05/10 07:38:41;;;;;;;;;;;;;;;;;;21092023;28;19931;-63
2022/05/10 07:48:42;;;;;;;;;;;;;;;;;;21090927;28;19951;-61
2022/05/10 07:58:44;;;;;;;;;;;;;;;;;;21089915;28;19932;-62
2022/05/10 08:08:46;;;;;;;;;;;;;;;;;;21089022;28;19924;-63
2022/05/10 08:18:49;;;;;;;;;;;;;;;;;;21089500;28;19947;-64
2022/05/10 08:28:52;;;;;;;;;;;23.50;41.40;;;;;;21101919;28;20448;-65
2022/05/10 08:38:54;;;;;;;;;;;23.00;41.40;;;;;;21087099;28;19982;-64
2022/05/10 08:48:59;;;;;;;;;;;23.10;40.70;;;;;;21087147;28;19924;-64
2022/05/10 08:59:04;;;;;;;;;;;23.00;39.10;;;;;;21068412;28;19928;-63
2022/05/10 09:09:24;;;;;;;;;;;23.70;38.30;;;;;;21085566;28;19924;-65
2022/05/10 09:19:40;;;;;;;;;;;23.80;37.40;;;;;;21084940;28;20457;-63
2022/05/10 09:29:44;;;;;;;;;;;23.50;37.90;;;;;;21082763;28;19930;-63
2022/05/10 09:39:50;;;;;;;;;;;23.70;37.80;;;;;;21118486;28;19924;-70
2022/05/10 09:49:52;;;;;;;;;;;23.80;38.70;;;;;;21146412;28;19931;-64
2022/05/10 09:59:54;;;;;;;;;;;24.10;39.20;;;;;;21152917;28;19962;-70
2022/05/10 10:10:11;;;;;;;;;;;24.00;39.50;;;;;;21151020;28;19975;-60
2022/05/10 10:20:15;;;;;;;;;;;24.00;38.90;;;;;;21160614;28;20378;-65
2022/05/10 10:30:18;;;;;;;;;;;24.40;38.90;;;;;;21163763;28;19947;-66
2022/05/10 10:40:30;;;;;;;;;;;24.40;38.30;;;;;;21162517;28;19976;-66
2022/05/10 10:50:33;;;;;;;;;;;24.50;38.00;;;;;;21171877;28;19931;-64
2022/05/10 11:00:41;;;;;;;;;;;24.40;38.90;;;;;;21176432;28;19931;-64
2022/05/10 11:11:01;;;;;;;;;;;24.70;38.60;;;;;;21174300;28;19924;-67
2022/05/10 11:21:15;;;;;;;;;;;25.00;37.70;;;;;;21176100;28;19927;-60
2022/05/10 11:31:28;;;;;;;;;;;25.10;38.10;;;;;;21175032;28;20027;-61
2022/05/10 11:41:30;;;;;;;;;;;;;;;;;;21177146;28;19923;-69
2022/05/10 11:51:38;;;;;;;;;;;;;;;;;;21174729;28;20376;-68
2022/05/10 12:01:40;;;;;;;;;;;;;;;;;;21174798;28;20065;-70
2022/05/10 12:11:43;;;;;;;;;;;;;;;;;;21173465;28;20022;-65
2022/05/10 12:21:45;;;;;;;;;;;;;;;;;;21174250;28;19977;-60
2022/05/10 12:31:47;;;;;;;;;;;;;;;;;;21172097;28;19924;-65
2022/05/10 12:41:50;;;;;;;;;;;27.30;33.90;;;;;;21171349;28;19923;-63
2022/05/10 12:52:01;;;;;;;;;;;27.10;34.60;;;;;;21170121;28;20026;-63
2022/05/10 13:02:04;;;;;;;;;;;;;;;;;;21169106;28;20392;-64
2022/05/10 13:12:08;;;;;;;;;;;;;;;;;;21169520;28;20376;-63
2022/05/10 13:22:14;;;;;;;;;;;28.20;33.00;;;;;;21168422;28;19927;-62
2022/05/10 13:32:33;;;;;;;;;;;27.40;34.50;;;;;;21149331;28;19924;-66
2022/05/10 13:42:40;;;;;;;;;;;28.20;33.20;;;;;;21165366;28;19923;-62
2022/05/10 13:52:46;;;;;;;;;;;27.70;33.60;;;;;;21165625;28;19923;-62
2022/05/10 14:02:51;;;;;;;;;;;27.90;33.50;;;;;;21165970;28;19931;-65
2022/05/10 14:12:58;;;;;;;;;;;28.20;32.70;;;;;;21145796;28;19935;-62
2022/05/10 14:23:04;;;;;;;;;;;28.00;32.90;;;;;;21163048;28;19928;-64
2022/05/10 14:33:13;;;;;;;;;;;28.30;32.40;;;;;;21162394;28;19961;-63
2022/05/10 14:43:25;;;;;;;;;;;28.20;32.70;;;;;;21144057;28;19930;-63
2022/05/10 14:53:27;;;;;;;;;;;28.20;32.60;;;;;;21162250;28;19924;-63
2022/05/10 15:03:29;;;;;;;;;;;28.40;31.70;;;;;;21164049;28;19931;-63
2022/05/10 15:13:31;;;;;;;;;;;28.30;32.40;;;;;;21162953;28;19924;-65
2022/05/10 15:23:33;;;;;;;;;;;;;;;;;;21143515;28;20363;-63
2022/05/10 15:33:35;;;;;;;;;;;29.80;30.40;;;;;;21165056;28;20280;-64
2022/05/10 15:43:37;;;;;;;;;;;29.70;30.30;;;;;;21174977;28;19924;-62
2022/05/10 15:53:39;;;;;;;;;;;28.90;31.30;;;;;;21156413;28;19974;-62
2022/05/10 16:03:40;;;;;;;;;;;28.80;31.70;;;;;;21175932;28;19924;-64
2022/05/10 16:13:42;;;;;;;;;;;28.80;30.90;;;;;;21179567;28;19978;-64
2022/05/10 16:23:44;;;;;;;;;;;28.60;31.50;;;;;;21181706;28;19923;-67
2022/05/10 16:33:45;;;;;;;;;;;28.70;31.30;;;;;;21177334;28;20027;-60
2022/05/10 16:43:47;;;;;;;;;;;28.80;30.70;;;;;;21178064;28;20261;-58
2022/05/10 16:53:49;;;;;;;;;;;28.60;31.40;;;;;;21176814;28;20027;-60
2022/05/10 17:03:53;;;;;;;;;;;28.50;30.80;;;;;;21165032;28;20268;-61
2022/05/10 17:13:55;;;;;;;;;;;28.50;30.80;;;;;;21165654;28;19931;-64
2022/05/10 17:23:58;;;;;;;;;;;28.30;31.10;;;;;;21165399;28;19959;-60
2022/05/10 17:33:59;;;;;;;;;;;28.30;31.50;;;;;;21164746;28;19932;-67
2022/05/10 17:44:02;;;;;;;;;;;28.30;31.40;;;;;;21164532;28;19947;-64
2022/05/10 17:54:03;;;;;;;;;;;28.20;31.10;;;;;;21166597;28;19934;-63
2022/05/10 18:04:05;;;;;;;;;;;28.20;31.50;;;;;;21146358;28;19928;-62
2022/05/10 18:14:09;;;;;;;;;;;;;;;;;;21164050;28;19924;-75
2022/05/10 18:24:11;;;;;;;;;;;28.60;30.50;;;;;;21165592;28;19923;-62
2022/05/10 18:34:13;;;;;;;;;;;27.70;31.60;;;;;;21167188;28;19934;-69
2022/05/10 18:44:15;;;;;;;;;;;27.60;31.50;;;;;;21170503;28;19924;-73
2022/05/10 18:54:17;;;;;;;;;;;28.30;30.40;;;;;;21173889;28;19924;-61
2022/05/10 19:04:18;;;;;;;;;;;;;;;;;;21179144;28;19924;-63
2022/05/10 19:14:20;;;;;;;;;;;;;;;;;;21195102;28;19924;-63
2022/05/10 19:24:21;;;;;;;;;;;27.70;31.20;;;;;;21177578;28;19931;-65
2022/05/10 19:34:23;;;;;;;;;;;;;;;;;;21174053;28;19928;-69
2022/05/10 19:44:25;;;;;;;;;;;27.10;31.70;;;;;;21169831;28;19927;-58
2022/05/10 19:54:27;;;;;;;;;;;;;;;;;;21175039;28;19949;-64
2022/05/10 20:14:49;;;;;;;;;;;;;;;;;;21169924;28;20291;-68
2022/05/10 20:24:51;;;;;;;;;;;;;;;;;;21152972;28;19931;-73
2022/05/10 20:34:53;;;;;;;;;;;;;;;;;;21173253;28;19924;-72
2022/05/10 20:44:56;;;;;;;;;;;;;;;;;;21175021;28;19924;-72
2022/05/10 20:54:58;;;;;;;;;;;25.60;33.60;;;;;;21171376;28;19927;-71
2022/05/10 21:05:00;;;;;;;;;;;;;;;;;;21171452;28;19924;-70
2022/05/10 21:15:02;;;;;;;;;;;;;;;;;;21169371;28;19973;-70
2022/05/10 21:25:04;;;;;;;;;;;;;;;;;;21170402;28;20019;-71
2022/05/10 21:35:06;;;;;;;;;;;;;;;;;;21167638;28;19928;-71
2022/05/10 21:45:09;;;;;;;;;;;;;;;;;;21166687;28;19924;-72
2022/05/10 21:55:10;;;;;;;;;;;;;;;;;;21166700;28;19924;-71
2022/05/10 22:05:12;;;;;;;;;;;;;;;;;;21165976;28;20265;-69
2022/05/10 22:15:14;;;;;;;;;;;;;;;;;;21165893;28;20010;-66
2022/05/10 22:25:16;;;;;;;;;;;;;;;;;;21166235;28;19971;-68
2022/05/10 22:35:18;;;;;;;;;;;;;;;;;;21147222;28;19977;-70
2022/05/10 22:45:20;;;;;;;;;;;23.70;40.30;;;;;;21175063;28;20014;-66
2022/05/10 22:55:22;;;;;;;;;;;23.10;41.20;;;;;;21182964;28;19999;-70
2022/05/10 23:05:24;;;;;;;;;;;22.70;42.30;;;;;;21181793;28;19928;-69
2022/05/10 23:15:25;;;;;;;;;;;22.40;43.10;;;;;;21180693;28;19924;-62
2022/05/10 23:25:27;;;;;;;;;;;22.00;44.20;;;;;;21179341;28;19923;-67
2022/05/10 23:35:29;;;;;;;;;;;21.70;45.00;;;;;;21178203;28;20375;-69
2022/05/10 23:45:31;;;;;;;;;;;21.60;45.50;;;;;;21177137;28;19924;-66
2022/05/10 23:55:38;;;;;;;;;;;21.60;45.10;;;;;;21174574;28;20297;-68
